sensor_id;sensor_type;location;lat;lon;timestamp;pressure;altitude;pressure_sealevel;temperature;humidity
45129;BME280;35512;56.312;101.728;2023-05-21T00:00:08;96970.94;;;10.30;30.27
45129;BME280;35512;56.312;101.728;2023-05-21T00:02:40;96971.03;;;10.34;30.12
45129;BME280;35512;56.312;101.728;2023-05-21T00:05:10;96968.88;;;10.40;30.33
45129;BME280;35512;56.312;101.728;2023-05-21T00:07:42;96974.13;;;10.48;30.30
45129;BME280;35512;56.312;101.728;2023-05-21T00:10:11;96962.28;;;10.53;30.23
45129;BME280;35512;56.312;101.728;2023-05-21T00:12:40;96965.84;;;10.57;30.12
45129;BME280;35512;56.312;101.728;2023-05-21T00:15:09;96960.97;;;10.63;30.04
45129;BME280;35512;56.312;101.728;2023-05-21T00:17:38;96965.75;;;10.70;29.80
45129;BME280;35512;56.312;101.728;2023-05-21T00:20:08;96971.31;;;10.77;29.94
45129;BME280;35512;56.312;101.728;2023-05-21T00:22:37;96964.16;;;10.85;29.86
45129;BME280;35512;56.312;101.728;2023-05-21T00:25:08;96955.34;;;10.88;29.87
45129;BME280;35512;56.312;101.728;2023-05-21T00:27:38;96967.22;;;10.99;29.69
45129;BME280;35512;56.312;101.728;2023-05-21T00:30:07;96967.88;;;11.12;29.91
45129;BME280;35512;56.312;101.728;2023-05-21T00:32:37;96955.72;;;11.22;29.80
45129;BME280;35512;56.312;101.728;2023-05-21T00:35:06;96962.16;;;11.33;29.64
45129;BME280;35512;56.312;101.728;2023-05-21T00:37:36;96958.97;;;11.47;29.69
45129;BME280;35512;56.312;101.728;2023-05-21T00:40:06;96958.56;;;11.64;29.61
45129;BME280;35512;56.312;101.728;2023-05-21T00:42:39;96953.63;;;11.90;29.71
45129;BME280;35512;56.312;101.728;2023-05-21T00:45:08;96953.69;;;12.13;29.44
45129;BME280;35512;56.312;101.728;2023-05-21T00:47:37;96952.22;;;12.39;29.40
45129;BME280;35512;56.312;101.728;2023-05-21T00:50:07;96952.63;;;12.64;29.44
45129;BME280;35512;56.312;101.728;2023-05-21T00:52:38;96945.31;;;12.91;29.32
45129;BME280;35512;56.312;101.728;2023-05-21T00:55:09;96949.13;;;13.17;28.96
45129;BME280;35512;56.312;101.728;2023-05-21T00:57:39;96948.59;;;13.34;29.16
45129;BME280;35512;56.312;101.728;2023-05-21T01:00:10;96950.06;;;13.55;28.91
45129;BME280;35512;56.312;101.728;2023-05-21T01:02:40;96946.88;;;13.80;28.91
45129;BME280;35512;56.312;101.728;2023-05-21T01:05:12;96944.47;;;14.09;28.45
45129;BME280;35512;56.312;101.728;2023-05-21T01:07:42;96935.84;;;14.41;28.10
45129;BME280;35512;56.312;101.728;2023-05-21T01:10:12;96936.16;;;14.77;28.04
45129;BME280;35512;56.312;101.728;2023-05-21T01:12:43;96937.13;;;15.02;27.81
45129;BME280;35512;56.312;101.728;2023-05-21T01:15:13;96932.97;;;15.23;28.04
45129;BME280;35512;56.312;101.728;2023-05-21T01:17:42;96924.91;;;15.45;28.02
45129;BME280;35512;56.312;101.728;2023-05-21T01:20:15;96935.88;;;15.66;27.56
45129;BME280;35512;56.312;101.728;2023-05-21T01:22:53;96933.28;;;15.92;27.47
45129;BME280;35512;56.312;101.728;2023-05-21T01:25:24;96929.44;;;16.21;27.09
45129;BME280;35512;56.312;101.728;2023-05-21T01:27:53;96921.28;;;16.36;26.89
45129;BME280;35512;56.312;101.728;2023-05-21T01:30:23;96929.88;;;16.67;26.86
45129;BME280;35512;56.312;101.728;2023-05-21T01:38:16;96921.91;;;18.33;25.37
45129;BME280;35512;56.312;101.728;2023-05-21T01:41:14;96916.97;;;19.50;25.31
45129;BME280;35512;56.312;101.728;2023-05-21T01:43:46;96912.97;;;20.43;24.78
45129;BME280;35512;56.312;101.728;2023-05-21T01:46:18;96911.94;;;21.49;24.33
45129;BME280;35512;56.312;101.728;2023-05-21T01:48:50;96913.41;;;22.30;23.89
45129;BME280;35512;56.312;101.728;2023-05-21T01:51:20;96914.28;;;23.39;23.89
45129;BME280;35512;56.312;101.728;2023-05-21T01:53:50;96916.97;;;24.49;23.26
45129;BME280;35512;56.312;101.728;2023-05-21T01:56:19;96907.91;;;25.44;22.76
45129;BME280;35512;56.312;101.728;2023-05-21T01:58:51;96915.03;;;26.40;21.88
45129;BME280;35512;56.312;101.728;2023-05-21T02:01:20;96907.94;;;27.07;21.63
45129;BME280;35512;56.312;101.728;2023-05-21T02:03:49;96915.50;;;27.62;21.51
45129;BME280;35512;56.312;101.728;2023-05-21T02:06:19;96910.34;;;28.31;21.14
45129;BME280;35512;56.312;101.728;2023-05-21T02:08:48;96912.59;;;29.00;20.68
45129;BME280;35512;56.312;101.728;2023-05-21T02:11:17;96902.59;;;29.57;20.09
45129;BME280;35512;56.312;101.728;2023-05-21T02:13:46;96906.44;;;30.19;19.70
45129;BME280;35512;56.312;101.728;2023-05-21T02:16:16;96891.38;;;30.82;19.05
45129;BME280;35512;56.312;101.728;2023-05-21T02:18:45;96897.34;;;31.37;18.95
45129;BME280;35512;56.312;101.728;2023-05-21T02:21:16;96891.63;;;31.72;18.26
45129;BME280;35512;56.312;101.728;2023-05-21T02:23:45;96890.81;;;31.66;17.94
45129;BME280;35512;56.312;101.728;2023-05-21T02:26:13;96891.38;;;32.08;18.02
45129;BME280;35512;56.312;101.728;2023-05-21T02:28:45;96891.94;;;32.44;16.93
45129;BME280;35512;56.312;101.728;2023-05-21T02:31:13;96890.09;;;32.78;16.67
45129;BME280;35512;56.312;101.728;2023-05-21T02:33:42;96889.94;;;33.10;16.40
45129;BME280;35512;56.312;101.728;2023-05-21T02:36:11;96881.16;;;33.40;16.21
45129;BME280;35512;56.312;101.728;2023-05-21T02:38:40;96886.78;;;33.57;16.27
45129;BME280;35512;56.312;101.728;2023-05-21T02:41:12;96879.19;;;33.80;16.13
45129;BME280;35512;56.312;101.728;2023-05-21T02:43:42;96890.66;;;33.99;15.31
45129;BME280;35512;56.312;101.728;2023-05-21T02:46:11;96872.28;;;34.38;15.28
45129;BME280;35512;56.312;101.728;2023-05-21T02:48:40;96874.97;;;34.78;15.16
45129;BME280;35512;56.312;101.728;2023-05-21T02:51:09;96866.09;;;34.68;15.20
45129;BME280;35512;56.312;101.728;2023-05-21T02:53:38;96864.69;;;35.03;15.12
45129;BME280;35512;56.312;101.728;2023-05-21T02:56:07;96867.31;;;35.43;14.82
45129;BME280;35512;56.312;101.728;2023-05-21T02:58:37;96867.94;;;35.96;14.49
45129;BME280;35512;56.312;101.728;2023-05-21T03:01:06;96868.38;;;36.31;13.96
45129;BME280;35512;56.312;101.728;2023-05-21T03:03:36;96865.94;;;36.21;13.50
45129;BME280;35512;56.312;101.728;2023-05-21T03:06:05;96855.59;;;36.35;13.71
45129;BME280;35512;56.312;101.728;2023-05-21T03:08:37;96851.28;;;36.53;13.69
45129;BME280;35512;56.312;101.728;2023-05-21T03:11:06;96851.28;;;36.97;13.60
45129;BME280;35512;56.312;101.728;2023-05-21T03:13:35;96852.97;;;37.44;13.59
45129;BME280;35512;56.312;101.728;2023-05-21T03:16:04;96851.19;;;37.93;13.24
45129;BME280;35512;56.312;101.728;2023-05-21T03:18:33;96842.59;;;38.31;12.73
45129;BME280;35512;56.312;101.728;2023-05-21T03:21:02;96848.25;;;38.44;12.64
45129;BME280;35512;56.312;101.728;2023-05-21T03:23:32;96843.25;;;38.50;12.18
45129;BME280;35512;56.312;101.728;2023-05-21T03:26:01;96841.19;;;38.51;12.13
45129;BME280;35512;56.312;101.728;2023-05-21T03:28:30;96836.50;;;38.67;12.02
45129;BME280;35512;56.312;101.728;2023-05-21T03:30:59;96831.09;;;38.82;11.67
45129;BME280;35512;56.312;101.728;2023-05-21T03:33:48;96826.59;;;39.00;11.55
45129;BME280;35512;56.312;101.728;2023-05-21T03:36:23;96832.22;;;39.14;11.64
45129;BME280;35512;56.312;101.728;2023-05-21T03:38:52;96824.28;;;39.12;11.24
45129;BME280;35512;56.312;101.728;2023-05-21T03:41:22;96818.53;;;39.04;10.95
45129;BME280;35512;56.312;101.728;2023-05-21T03:43:55;96823.22;;;39.02;10.97
45129;BME280;35512;56.312;101.728;2023-05-21T03:46:29;96837.72;;;39.33;10.69
45129;BME280;35512;56.312;101.728;2023-05-21T03:49:08;96821.97;;;38.76;10.27
45129;BME280;35512;56.312;101.728;2023-05-21T03:51:38;96824.25;;;38.78;10.71
45129;BME280;35512;56.312;101.728;2023-05-21T03:54:11;96813.28;;;38.87;9.73
45129;BME280;35512;56.312;101.728;2023-05-21T03:56:40;96815.69;;;38.57;10.10
45129;BME280;35512;56.312;101.728;2023-05-21T03:59:09;96807.25;;;38.70;10.27
45129;BME280;35512;56.312;101.728;2023-05-21T04:01:38;96806.28;;;39.02;10.10
45129;BME280;35512;56.312;101.728;2023-05-21T04:04:10;96799.94;;;39.22;10.43
45129;BME280;35512;56.312;101.728;2023-05-21T04:06:40;96805.88;;;39.53;10.40
45129;BME280;35512;56.312;101.728;2023-05-21T04:09:12;96797.56;;;39.48;10.13
45129;BME280;35512;56.312;101.728;2023-05-21T04:11:42;96788.41;;;39.34;9.91
45129;BME280;35512;56.312;101.728;2023-05-21T04:14:11;96795.19;;;39.38;9.83
45129;BME280;35512;56.312;101.728;2023-05-21T04:16:40;96799.09;;;39.70;9.76
45129;BME280;35512;56.312;101.728;2023-05-21T04:19:11;96794.09;;;39.42;9.60
45129;BME280;35512;56.312;101.728;2023-05-21T04:21:40;96786.06;;;38.63;9.48
45129;BME280;35512;56.312;101.728;2023-05-21T04:24:10;96782.59;;;38.17;9.68
45129;BME280;35512;56.312;101.728;2023-05-21T04:26:50;96778.91;;;37.63;9.60
45129;BME280;35512;56.312;101.728;2023-05-21T04:29:19;96776.25;;;37.38;9.57
45129;BME280;35512;56.312;101.728;2023-05-21T04:31:50;96785.00;;;37.34;10.07
45129;BME280;35512;56.312;101.728;2023-05-21T04:34:19;96776.75;;;37.04;9.97
45129;BME280;35512;56.312;101.728;2023-05-21T04:36:48;96766.56;;;37.01;9.91
45129;BME280;35512;56.312;101.728;2023-05-21T04:39:17;96775.72;;;36.63;9.51
45129;BME280;35512;56.312;101.728;2023-05-21T04:41:46;96769.00;;;36.03;9.85
45129;BME280;35512;56.312;101.728;2023-05-21T04:44:18;96761.00;;;36.13;9.72
45129;BME280;35512;56.312;101.728;2023-05-21T04:46:47;96760.59;;;36.66;9.82
45129;BME280;35512;56.312;101.728;2023-05-21T04:49:17;96754.31;;;35.92;9.17
45129;BME280;35512;56.312;101.728;2023-05-21T04:51:48;96756.94;;;35.17;9.71
45129;BME280;35512;56.312;101.728;2023-05-21T04:54:17;96752.91;;;35.13;10.06
45129;BME280;35512;56.312;101.728;2023-05-21T04:56:46;96754.09;;;35.23;9.58
45129;BME280;35512;56.312;101.728;2023-05-21T04:59:16;96746.03;;;35.44;9.86
45129;BME280;35512;56.312;101.728;2023-05-21T05:01:46;96742.16;;;36.27;9.62
45129;BME280;35512;56.312;101.728;2023-05-21T05:04:15;96738.78;;;36.72;9.67
45129;BME280;35512;56.312;101.728;2023-05-21T05:06:44;96737.25;;;36.71;9.23
45129;BME280;35512;56.312;101.728;2023-05-21T05:09:13;96725.38;;;35.97;9.21
45129;BME280;35512;56.312;101.728;2023-05-21T05:11:42;96727.03;;;35.86;9.68
45129;BME280;35512;56.312;101.728;2023-05-21T05:14:11;96709.75;;;36.01;9.48
45129;BME280;35512;56.312;101.728;2023-05-21T05:16:42;96717.22;;;35.08;9.55
45129;BME280;35512;56.312;101.728;2023-05-21T05:19:11;96715.25;;;34.97;9.61
45129;BME280;35512;56.312;101.728;2023-05-21T05:21:40;96707.31;;;35.01;9.34
45129;BME280;35512;56.312;101.728;2023-05-21T05:24:09;96704.25;;;34.57;9.32
45129;BME280;35512;56.312;101.728;2023-05-21T05:26:38;96695.69;;;34.38;9.78
45129;BME280;35512;56.312;101.728;2023-05-21T05:29:07;96694.97;;;34.32;9.35
45129;BME280;35512;56.312;101.728;2023-05-21T05:31:36;96699.44;;;33.76;9.91
45129;BME280;35512;56.312;101.728;2023-05-21T05:34:06;96701.34;;;34.27;9.93
45129;BME280;35512;56.312;101.728;2023-05-21T05:36:35;96683.69;;;34.91;9.50
45129;BME280;35512;56.312;101.728;2023-05-21T05:39:04;96688.09;;;34.75;9.40
45129;BME280;35512;56.312;101.728;2023-05-21T05:41:33;96683.59;;;34.60;9.16
45129;BME280;35512;56.312;101.728;2023-05-21T05:44:02;96681.69;;;34.80;9.48
45129;BME280;35512;56.312;101.728;2023-05-21T05:46:35;96673.53;;;34.40;9.26
45129;BME280;35512;56.312;101.728;2023-05-21T05:49:04;96689.34;;;34.38;9.68
45129;BME280;35512;56.312;101.728;2023-05-21T05:51:33;96676.66;;;34.14;9.39
45129;BME280;35512;56.312;101.728;2023-05-21T05:54:02;96671.59;;;34.07;9.57
45129;BME280;35512;56.312;101.728;2023-05-21T05:56:32;96681.06;;;33.92;9.58
45129;BME280;35512;56.312;101.728;2023-05-21T05:59:03;96667.72;;;34.68;9.39
45129;BME280;35512;56.312;101.728;2023-05-21T06:01:36;96662.63;;;35.64;9.07
45129;BME280;35512;56.312;101.728;2023-05-21T06:04:06;96665.97;;;35.37;9.08
45129;BME280;35512;56.312;101.728;2023-05-21T06:06:35;96664.97;;;35.84;9.26
45129;BME280;35512;56.312;101.728;2023-05-21T06:09:04;96655.34;;;36.43;8.87
45129;BME280;35512;56.312;101.728;2023-05-21T06:11:34;96656.38;;;36.78;8.96
45129;BME280;35512;56.312;101.728;2023-05-21T06:14:03;96637.84;;;36.50;8.91
45129;BME280;35512;56.312;101.728;2023-05-21T06:16:33;96642.47;;;35.90;9.02
45129;BME280;35512;56.312;101.728;2023-05-21T06:19:03;96635.88;;;35.82;9.11
45129;BME280;35512;56.312;101.728;2023-05-21T06:21:32;96648.84;;;35.91;8.50
45129;BME280;35512;56.312;101.728;2023-05-21T06:24:03;96635.63;;;35.61;8.87
45129;BME280;35512;56.312;101.728;2023-05-21T06:26:33;96637.00;;;35.98;8.99
45129;BME280;35512;56.312;101.728;2023-05-21T06:29:02;96642.16;;;35.94;8.38
45129;BME280;35512;56.312;101.728;2023-05-21T06:31:31;96642.44;;;35.65;8.88
45129;BME280;35512;56.312;101.728;2023-05-21T06:34:00;96633.91;;;35.77;8.87
45129;BME280;35512;56.312;101.728;2023-05-21T06:36:29;96635.63;;;35.61;8.77
45129;BME280;35512;56.312;101.728;2023-05-21T06:38:59;96631.31;;;35.29;8.68
45129;BME280;35512;56.312;101.728;2023-05-21T06:41:29;96625.22;;;35.25;8.99
45129;BME280;35512;56.312;101.728;2023-05-21T06:44:02;96614.69;;;35.37;8.84
45129;BME280;35512;56.312;101.728;2023-05-21T06:46:58;96624.03;;;35.15;8.80
45129;BME280;35512;56.312;101.728;2023-05-21T06:49:27;96606.84;;;34.99;8.72
45129;BME280;35512;56.312;101.728;2023-05-21T06:51:56;96613.94;;;35.80;8.91
45129;BME280;35512;56.312;101.728;2023-05-21T06:54:25;96606.44;;;35.88;8.53
45129;BME280;35512;56.312;101.728;2023-05-21T06:56:54;96619.09;;;35.76;8.69
45129;BME280;35512;56.312;101.728;2023-05-21T06:59:24;96596.16;;;35.72;8.59
45129;BME280;35512;56.312;101.728;2023-05-21T07:01:54;96605.50;;;35.80;8.46
45129;BME280;35512;56.312;101.728;2023-05-21T07:04:24;96581.00;;;35.31;8.81
45129;BME280;35512;56.312;101.728;2023-05-21T07:06:54;96578.59;;;34.92;8.81
45129;BME280;35512;56.312;101.728;2023-05-21T07:09:24;96589.19;;;35.04;9.02
45129;BME280;35512;56.312;101.728;2023-05-21T07:11:53;96574.38;;;35.59;8.89
45129;BME280;35512;56.312;101.728;2023-05-21T07:14:24;96573.47;;;35.70;8.65
45129;BME280;35512;56.312;101.728;2023-05-21T07:16:54;96574.06;;;35.63;8.57
45129;BME280;35512;56.312;101.728;2023-05-21T07:19:23;96565.16;;;35.59;8.43
45129;BME280;35512;56.312;101.728;2023-05-21T07:21:53;96566.22;;;35.56;8.72
45129;BME280;35512;56.312;101.728;2023-05-21T07:24:22;96562.44;;;35.53;8.75
45129;BME280;35512;56.312;101.728;2023-05-21T07:26:52;96560.91;;;35.27;8.64
45129;BME280;35512;56.312;101.728;2023-05-21T07:29:21;96555.75;;;34.76;8.96
45129;BME280;35512;56.312;101.728;2023-05-21T07:31:51;96541.84;;;34.65;9.25
45129;BME280;35512;56.312;101.728;2023-05-21T07:34:20;96546.72;;;34.95;8.76
45129;BME280;35512;56.312;101.728;2023-05-21T07:36:49;96549.66;;;34.42;9.07
45129;BME280;35512;56.312;101.728;2023-05-21T07:39:18;96546.56;;;33.39;8.86
45129;BME280;35512;56.312;101.728;2023-05-21T07:41:48;96539.06;;;32.72;9.64
45129;BME280;35512;56.312;101.728;2023-05-21T07:44:17;96547.94;;;32.76;9.12
45129;BME280;35512;56.312;101.728;2023-05-21T07:46:47;96539.03;;;32.49;9.20
45129;BME280;35512;56.312;101.728;2023-05-21T07:49:17;96533.72;;;31.57;9.46
45129;BME280;35512;56.312;101.728;2023-05-21T07:51:47;96534.97;;;30.43;9.93
45129;BME280;35512;56.312;101.728;2023-05-21T07:54:16;96529.56;;;28.69;10.60
45129;BME280;35512;56.312;101.728;2023-05-21T07:56:48;96526.72;;;26.73;11.36
45129;BME280;35512;56.312;101.728;2023-05-21T07:59:43;96516.53;;;25.16;12.45
45129;BME280;35512;56.312;101.728;2023-05-21T08:02:13;96516.81;;;24.36;12.94
45129;BME280;35512;56.312;101.728;2023-05-21T08:04:42;96505.81;;;23.70;13.42
45129;BME280;35512;56.312;101.728;2023-05-21T08:07:11;96512.78;;;23.13;13.71
45129;BME280;35512;56.312;101.728;2023-05-21T08:09:41;96510.94;;;22.85;14.10
45129;BME280;35512;56.312;101.728;2023-05-21T08:12:10;96510.06;;;22.62;14.04
45129;BME280;35512;56.312;101.728;2023-05-21T08:14:44;96501.22;;;22.41;14.36
45129;BME280;35512;56.312;101.728;2023-05-21T08:17:15;96494.16;;;22.27;14.36
45129;BME280;35512;56.312;101.728;2023-05-21T08:19:44;96488.75;;;22.11;14.59
45129;BME280;35512;56.312;101.728;2023-05-21T08:22:13;96488.19;;;22.03;14.68
45129;BME280;35512;56.312;101.728;2023-05-21T08:24:45;96489.16;;;21.97;14.84
45129;BME280;35512;56.312;101.728;2023-05-21T08:27:14;96483.69;;;21.97;14.75
45129;BME280;35512;56.312;101.728;2023-05-21T08:29:44;96477.69;;;21.85;14.96
45129;BME280;35512;56.312;101.728;2023-05-21T08:32:13;96485.56;;;21.70;15.17
45129;BME280;35512;56.312;101.728;2023-05-21T08:34:42;96484.34;;;21.58;15.39
45129;BME280;35512;56.312;101.728;2023-05-21T08:37:26;96482.88;;;21.54;15.56
45129;BME280;35512;56.312;101.728;2023-05-21T08:40:02;96481.31;;;21.53;15.61
45129;BME280;35512;56.312;101.728;2023-05-21T08:42:49;96470.25;;;21.40;15.73
45129;BME280;35512;56.312;101.728;2023-05-21T08:45:34;96473.09;;;21.36;16.23
45129;BME280;35512;56.312;101.728;2023-05-21T08:48:08;96468.94;;;21.15;16.16
45129;BME280;35512;56.312;101.728;2023-05-21T08:50:40;96479.16;;;21.15;16.05
45129;BME280;35512;56.312;101.728;2023-05-21T08:53:22;96470.50;;;21.16;16.25
45129;BME280;35512;56.312;101.728;2023-05-21T08:55:57;96460.63;;;21.02;16.38
45129;BME280;35512;56.312;101.728;2023-05-21T08:58:39;96461.91;;;20.98;16.53
45129;BME280;35512;56.312;101.728;2023-05-21T09:01:12;96454.72;;;21.04;16.60
45129;BME280;35512;56.312;101.728;2023-05-21T09:03:46;96457.97;;;20.99;16.52
45129;BME280;35512;56.312;101.728;2023-05-21T09:06:15;96452.94;;;20.97;16.66
45129;BME280;35512;56.312;101.728;2023-05-21T09:08:49;96456.69;;;21.03;16.59
45129;BME280;35512;56.312;101.728;2023-05-21T09:11:28;96449.81;;;21.11;16.51
45129;BME280;35512;56.312;101.728;2023-05-21T09:13:59;96442.34;;;21.12;16.66
45129;BME280;35512;56.312;101.728;2023-05-21T09:16:39;96441.16;;;20.97;16.79
45129;BME280;35512;56.312;101.728;2023-05-21T09:19:08;96441.97;;;20.81;16.65
45129;BME280;35512;56.312;101.728;2023-05-21T09:21:38;96439.38;;;20.73;16.99
45129;BME280;35512;56.312;101.728;2023-05-21T09:24:13;96432.16;;;20.63;16.75
45129;BME280;35512;56.312;101.728;2023-05-21T09:26:43;96435.72;;;20.60;16.97
45129;BME280;35512;56.312;101.728;2023-05-21T09:29:13;96438.47;;;20.60;17.29
45129;BME280;35512;56.312;101.728;2023-05-21T09:31:45;96430.94;;;20.48;17.33
45129;BME280;35512;56.312;101.728;2023-05-21T09:34:14;96428.28;;;20.44;17.32
45129;BME280;35512;56.312;101.728;2023-05-21T09:36:47;96429.91;;;20.41;17.51
45129;BME280;35512;56.312;101.728;2023-05-21T09:39:39;96424.00;;;20.43;17.29
45129;BME280;35512;56.312;101.728;2023-05-21T09:42:09;96416.81;;;20.49;17.50
45129;BME280;35512;56.312;101.728;2023-05-21T09:44:41;96419.97;;;20.48;17.53
45129;BME280;35512;56.312;101.728;2023-05-21T09:47:10;96406.94;;;20.35;17.61
45129;BME280;35512;56.312;101.728;2023-05-21T09:49:43;96403.47;;;20.15;17.70
45129;BME280;35512;56.312;101.728;2023-05-21T09:52:12;96404.84;;;20.06;17.91
45129;BME280;35512;56.312;101.728;2023-05-21T09:54:40;96409.13;;;20.07;17.89
45129;BME280;35512;56.312;101.728;2023-05-21T09:57:09;96398.16;;;20.07;17.82
45129;BME280;35512;56.312;101.728;2023-05-21T09:59:38;96390.19;;;19.97;17.76
45129;BME280;35512;56.312;101.728;2023-05-21T10:02:20;96393.41;;;19.91;18.05
45129;BME280;35512;56.312;101.728;2023-05-21T10:04:51;96396.59;;;19.90;17.95
45129;BME280;35512;56.312;101.728;2023-05-21T10:07:25;96388.56;;;19.79;18.18
45129;BME280;35512;56.312;101.728;2023-05-21T10:09:56;96389.84;;;19.74;18.12
45129;BME280;35512;56.312;101.728;2023-05-21T10:12:26;96376.47;;;19.76;18.04
45129;BME280;35512;56.312;101.728;2023-05-21T10:15:02;96390.19;;;19.76;17.91
45129;BME280;35512;56.312;101.728;2023-05-21T10:17:34;96377.84;;;19.68;18.16
45129;BME280;35512;56.312;101.728;2023-05-21T10:20:05;96372.09;;;19.63;18.09
45129;BME280;35512;56.312;101.728;2023-05-21T10:22:36;96373.38;;;19.58;18.17
45129;BME280;35512;56.312;101.728;2023-05-21T10:25:08;96367.88;;;19.58;18.24
45129;BME280;35512;56.312;101.728;2023-05-21T10:27:38;96364.44;;;19.54;18.16
45129;BME280;35512;56.312;101.728;2023-05-21T10:30:07;96355.53;;;19.50;18.25
45129;BME280;35512;56.312;101.728;2023-05-21T10:32:38;96359.94;;;19.43;18.48
45129;BME280;35512;56.312;101.728;2023-05-21T10:35:09;96360.31;;;19.46;18.43
45129;BME280;35512;56.312;101.728;2023-05-21T10:37:39;96348.03;;;19.34;18.53
45129;BME280;35512;56.312;101.728;2023-05-21T10:40:10;96349.44;;;19.42;18.48
45129;BME280;35512;56.312;101.728;2023-05-21T10:43:12;96350.28;;;19.39;18.46
45129;BME280;35512;56.312;101.728;2023-05-21T10:54:07;96345.28;;;19.34;18.49
45129;BME280;35512;56.312;101.728;2023-05-21T10:57:16;96341.22;;;19.22;18.57
45129;BME280;35512;56.312;101.728;2023-05-21T10:59:50;96333.63;;;19.09;18.72
45129;BME280;35512;56.312;101.728;2023-05-21T11:02:20;96336.44;;;19.06;18.76
45129;BME280;35512;56.312;101.728;2023-05-21T11:04:57;96335.44;;;18.96;18.69
45129;BME280;35512;56.312;101.728;2023-05-21T11:07:57;96335.16;;;18.90;18.84
45129;BME280;35512;56.312;101.728;2023-05-21T11:10:39;96323.91;;;18.85;18.85
45129;BME280;35512;56.312;101.728;2023-05-21T11:13:15;96333.72;;;18.82;18.87
45129;BME280;35512;56.312;101.728;2023-05-21T11:21:08;96316.28;;;18.76;19.02
45129;BME280;35512;56.312;101.728;2023-05-21T11:23:50;96319.06;;;18.72;19.06
45129;BME280;35512;56.312;101.728;2023-05-21T11:26:22;96314.06;;;18.67;19.20
45129;BME280;35512;56.312;101.728;2023-05-21T11:31:33;96307.88;;;18.63;19.05
45129;BME280;35512;56.312;101.728;2023-05-21T11:34:20;96319.91;;;18.69;19.31
45129;BME280;35512;56.312;101.728;2023-05-21T11:39:48;96316.09;;;18.63;19.31
45129;BME280;35512;56.312;101.728;2023-05-21T11:42:37;96312.66;;;18.59;19.26
45129;BME280;35512;56.312;101.728;2023-05-21T11:45:07;96313.50;;;18.56;19.37
45129;BME280;35512;56.312;101.728;2023-05-21T11:47:36;96303.88;;;18.48;19.47
45129;BME280;35512;56.312;101.728;2023-05-21T11:50:05;96306.59;;;18.48;19.33
45129;BME280;35512;56.312;101.728;2023-05-21T11:52:41;96308.63;;;18.44;19.49
45129;BME280;35512;56.312;101.728;2023-05-21T11:55:10;96306.38;;;18.38;19.35
45129;BME280;35512;56.312;101.728;2023-05-21T11:57:41;96309.28;;;18.28;19.52
45129;BME280;35512;56.312;101.728;2023-05-21T12:00:14;96290.88;;;18.08;19.71
45129;BME280;35512;56.312;101.728;2023-05-21T12:02:49;96300.97;;;18.11;19.34
45129;BME280;35512;56.312;101.728;2023-05-21T12:05:19;96298.34;;;18.04;19.61
45129;BME280;35512;56.312;101.728;2023-05-21T12:07:48;96308.94;;;17.98;19.58
45129;BME280;35512;56.312;101.728;2023-05-21T12:10:21;96298.22;;;17.84;19.79
45129;BME280;35512;56.312;101.728;2023-05-21T12:12:51;96303.00;;;17.76;19.71
45129;BME280;35512;56.312;101.728;2023-05-21T12:15:25;96294.97;;;17.65;19.78
45129;BME280;35512;56.312;101.728;2023-05-21T12:17:55;96295.84;;;17.58;19.84
45129;BME280;35512;56.312;101.728;2023-05-21T12:20:27;96294.78;;;17.52;19.77
45129;BME280;35512;56.312;101.728;2023-05-21T12:22:56;96298.69;;;17.51;19.90
45129;BME280;35512;56.312;101.728;2023-05-21T12:25:27;96290.22;;;17.42;20.07
45129;BME280;35512;56.312;101.728;2023-05-21T12:27:57;96294.53;;;17.39;20.10
45129;BME280;35512;56.312;101.728;2023-05-21T12:30:28;96291.88;;;17.36;20.11
45129;BME280;35512;56.312;101.728;2023-05-21T12:32:58;96274.78;;;17.32;20.07
45129;BME280;35512;56.312;101.728;2023-05-21T12:35:29;96281.81;;;17.29;20.00
45129;BME280;35512;56.312;101.728;2023-05-21T12:38:00;96270.66;;;17.16;20.00
45129;BME280;35512;56.312;101.728;2023-05-21T12:40:34;96284.41;;;17.09;20.01
45129;BME280;35512;56.312;101.728;2023-05-21T12:43:05;96291.09;;;17.04;20.10
45129;BME280;35512;56.312;101.728;2023-05-21T12:45:35;96282.97;;;16.97;20.36
45129;BME280;35512;56.312;101.728;2023-05-21T12:48:06;96281.91;;;16.91;20.32
45129;BME280;35512;56.312;101.728;2023-05-21T12:50:38;96280.84;;;16.78;20.23
45129;BME280;35512;56.312;101.728;2023-05-21T12:53:09;96288.38;;;16.66;20.31
45129;BME280;35512;56.312;101.728;2023-05-21T12:55:40;96282.63;;;16.57;20.43
45129;BME280;35512;56.312;101.728;2023-05-21T12:58:12;96280.66;;;16.58;20.37
45129;BME280;35512;56.312;101.728;2023-05-21T13:00:42;96280.28;;;16.55;20.38
45129;BME280;35512;56.312;101.728;2023-05-21T13:03:13;96279.59;;;16.48;20.51
45129;BME280;35512;56.312;101.728;2023-05-21T13:05:42;96279.25;;;16.42;20.55
45129;BME280;35512;56.312;101.728;2023-05-21T13:08:11;96275.78;;;16.38;20.75
45129;BME280;35512;56.312;101.728;2023-05-21T13:10:41;96282.00;;;16.38;20.73
45129;BME280;35512;56.312;101.728;2023-05-21T13:13:10;96274.25;;;16.37;20.97
45129;BME280;35512;56.312;101.728;2023-05-21T13:15:39;96274.31;;;16.30;20.89
45129;BME280;35512;56.312;101.728;2023-05-21T13:18:09;96268.22;;;16.15;21.05
45129;BME280;35512;56.312;101.728;2023-05-21T13:20:39;96274.50;;;16.04;21.14
45129;BME280;35512;56.312;101.728;2023-05-21T13:23:08;96269.53;;;15.96;21.34
45129;BME280;35512;56.312;101.728;2023-05-21T13:25:38;96273.03;;;15.96;21.47
45129;BME280;35512;56.312;101.728;2023-05-21T13:28:07;96273.47;;;15.91;21.24